Time;durP1;ratioP1;P1;durP2;ratioP2;P2;SDS_P1;SDS_P2;PMS_P1;PMS_P2;Temp;Humidity;BMP_temperature;BMP_pressure;BME280_temperature;BME280_humidity;BME280_pressure;Samples;Min_cycle;Max_cycle;Signal;HPM_P1;HPM_P2
2021/11/05 00:00:42;;;;;;;13.45;11.48;;;;;;;;;;5047558;28;20225;-80
2021/11/05 00:03:09;;;;;;;13.32;9.98;;;;;;;;;;5047588;28;20190;-80
2021/11/05 00:05:36;;;;;;;13.30;10.43;;;;;;;;;;5044469;28;20195;-80
2021/11/05 00:08:07;;;;;;;12.07;10.45;;;;;;;;;;5042805;28;20191;-78
2021/11/05 00:10:34;;;;;;;14.65;11.73;;;;;;;;;;5050006;28;20753;-78
2021/11/05 00:13:01;;;;;;;12.25;10.98;;;;;;;;;;5062561;28;20194;-77
2021/11/05 00:15:30;;;;;;;13.23;10.90;;;;;;;;;;5055521;28;20191;-78
2021/11/05 00:17:57;;;;;;;11.63;10.10;;;;;;;;;;5050605;28;20198;-77
2021/11/05 00:20:24;;;;;;;12.00;10.80;;;;;;;;;;5047454;28;20198;-77
2021/11/05 00:22:51;;;;;;;14.20;11.00;;;;;;;;;;5049116;28;20423;-78
2021/11/05 00:25:18;;;;;;;14.13;12.23;;;;;;;;;;5040103;28;20561;-78
2021/11/05 00:27:46;;;;;;;14.23;11.57;;;;;;;;;;5049243;28;20210;-78
2021/11/05 00:30:13;;;;;;;12.65;11.35;;;;;;;;;;5049746;28;20210;-77
2021/11/05 00:32:43;;;;;;;12.55;10.57;;;;;;;;;;5048787;28;20198;-78
2021/11/05 00:35:10;;;;;;;19.25;13.25;;;;;;;;;;5035352;28;20190;-78
2021/11/05 00:37:37;;;;;;;13.15;10.38;;;;;;;;;;5047959;28;20206;-78
2021/11/05 00:40:04;;;;;;;15.93;11.18;;;;;;;;;;5047910;28;20198;-78
2021/11/05 00:42:31;;;;;;;12.25;9.88;;;;;;;;;;5056804;28;20194;-78
2021/11/05 00:44:58;;;;;;;14.32;11.55;;;;;;;;;;5052653;28;20192;-78
2021/11/05 00:47:25;;;;;;;12.18;10.52;;;;;;;;;;5043711;28;20202;-78
2021/11/05 00:49:54;;;;;;;13.32;10.18;;;;;;;;;;5043271;28;20222;-78
2021/11/05 00:52:21;;;;;;;14.10;11.23;;;;;;;;;;5038958;28;20200;-78
2021/11/05 00:54:48;;;;;;;14.40;11.63;;;;;;;;;;5043743;28;20202;-78
2021/11/05 00:57:15;;;;;;;15.57;12.43;;;;;;;;;;5048945;28;20569;-79
2021/11/05 00:59:42;;;;;;;15.63;11.77;;;;;;;;;;5050686;28;20222;-79
2021/11/05 01:02:10;;;;;;;17.75;12.93;;;;;;;;;;5055879;28;20203;-79
2021/11/05 01:04:37;;;;;;;13.23;11.45;;;;;;;;;;5051282;28;20202;-79
2021/11/05 01:07:06;;;;;;;13.65;11.20;;;;;;;;;;5048237;28;20198;-79
2021/11/05 01:09:33;;;;;;;12.52;9.25;;;;;;;;;;5052339;28;20226;-77
2021/11/05 01:12:00;;;;;;;13.27;11.25;;;;;;;;;;5050892;28;20723;-78
2021/11/05 01:14:27;;;;;;;13.18;10.80;;;;;;;;;;5053347;28;20531;-79
2021/11/05 01:16:54;;;;;;;17.17;13.20;;;;;;;;;;5051448;28;20199;-78
2021/11/05 01:19:21;;;;;;;11.85;10.18;;;;;;;;;;5046819;28;20604;-79
2021/11/05 01:21:48;;;;;;;11.18;9.95;;;;;;;;;;5046914;28;20198;-80
2021/11/05 01:24:16;;;;;;;13.50;10.98;;;;;;;;;;5051865;28;20191;-80
2021/11/05 01:26:44;;;;;;;12.88;10.57;;;;;;;;;;5050820;28;20248;-79
2021/11/05 01:29:11;;;;;;;13.00;10.82;;;;;;;;;;5053683;28;20199;-79
2021/11/05 01:31:38;;;;;;;14.50;11.40;;;;;;;;;;5052153;28;20238;-80
2021/11/05 01:34:05;;;;;;;10.27;9.23;;;;;;;;;;5050551;28;20236;-79
2021/11/05 01:36:33;;;;;;;15.55;11.23;;;;;;;;;;5047301;28;20190;-80
2021/11/05 01:39:00;;;;;;;12.15;10.55;;;;;;;;;;5050746;28;20202;-79
2021/11/05 01:41:28;;;;;;;14.82;9.75;;;;;;;;;;5048848;28;20211;-79
2021/11/05 01:43:55;;;;;;;11.63;9.90;;;;;;;;;;5047939;28;20198;-79
2021/11/05 01:46:22;;;;;;;14.75;11.45;;;;;;;;;;5043165;28;20183;-79
2021/11/05 01:48:50;;;;;;;16.92;10.88;;;;;;;;;;5042824;28;20195;-80
2021/11/05 01:51:17;;;;;;;11.73;10.25;;;;;;;;;;5042012;28;20217;-81
2021/11/05 01:53:44;;;;;;;13.38;11.07;;;;;;;;;;5049675;28;20199;-77
2021/11/05 01:56:11;;;;;;;12.30;10.68;;;;;;;;;;5050110;28;20407;-84
2021/11/05 01:58:39;;;;;;;11.45;10.20;;;;;;;;;;5051793;28;20274;-83
2021/11/05 02:01:06;;;;;;;13.57;9.65;;;;;;;;;;5055790;28;20453;-78
2021/11/05 02:03:33;;;;;;;14.55;12.15;;;;;;;;;;5062250;28;20191;-79
2021/11/05 02:06:01;;;;;;;11.82;10.23;;;;;;;;;;5053576;28;20206;-78
2021/11/05 02:08:29;;;;;;;12.32;10.70;;;;;;;;;;5053632;28;20226;-79
2021/11/05 02:10:57;;;;;;;17.10;11.60;;;;;;;;;;5053041;28;20215;-79
2021/11/05 02:13:27;;;;;;;12.48;10.45;;;;;;;;;;5050657;28;20190;-79
2021/11/05 02:15:56;;;;;;;15.45;11.63;;;;;;;;;;5042389;28;20218;-79
2021/11/05 02:18:23;;;;;;;16.45;10.93;;;;;;;;;;5058096;28;20190;-80
2021/11/05 02:20:55;;;;;;;12.70;10.50;;;;;;;;;;5043312;28;20299;-79
2021/11/05 02:23:23;;;;;;;13.65;10.75;;;;;;;;;;5045676;28;20199;-80
2021/11/05 02:25:50;;;;;;;11.48;9.75;;;;;;;;;;5049145;28;20195;-80
2021/11/05 02:28:17;;;;;;;11.73;10.52;;;;;;;;;;5049506;28;20192;-80
2021/11/05 02:30:44;;;;;;;10.45;8.90;;;;;;;;;;5054241;28;20217;-79
2021/11/05 02:33:12;;;;;;;10.50;9.32;;;;;;;;;;5053301;28;20199;-80
2021/11/05 02:35:39;;;;;;;12.18;10.27;;;;;;;;;;5050125;28;20203;-80
2021/11/05 02:38:06;;;;;;;12.65;10.73;;;;;;;;;;5050645;28;20195;-80
2021/11/05 02:40:34;;;;;;;14.07;10.85;;;;;;;;;;5033765;28;20658;-80
2021/11/05 02:43:02;;;;;;;10.60;9.20;;;;;;;;;;5051657;28;20187;-80
2021/11/05 02:45:29;;;;;;;12.07;10.18;;;;;;;;;;5053806;28;20235;-79
2021/11/05 02:47:56;;;;;;;14.35;10.05;;;;;;;;;;5055107;28;20201;-79
2021/11/05 02:50:23;;;;;;;11.80;10.15;;;;;;;;;;5039780;28;20194;-80
2021/11/05 02:52:50;;;;;;;11.80;9.57;;;;;;;;;;5052200;28;20211;-79
2021/11/05 02:55:17;;;;;;;11.90;8.70;;;;;;;;;;5049661;28;20187;-80
2021/11/05 02:57:46;;;;;;;10.98;8.80;;;;;;;;;;5052515;28;20205;-80
2021/11/05 03:00:15;;;;;;;9.88;8.35;;;;;;;;;;5050573;28;20233;-79
2021/11/05 03:02:42;;;;;;;9.70;7.85;;;;;;;;;;5049482;28;20199;-80
2021/11/05 03:05:09;;;;;;;11.02;8.40;;;;;;;;;;5051607;28;20207;-82
2021/11/05 03:07:36;;;;;;;9.20;7.88;;;;;;;;;;5046687;28;20198;-80
2021/11/05 03:10:03;;;;;;;12.80;9.15;;;;;;;;;;5034589;28;20199;-79
2021/11/05 03:12:30;;;;;;;11.35;9.55;;;;;;;;;;5042385;28;20219;-79
2021/11/05 03:14:59;;;;;;;15.20;10.25;;;;;;;;;;5040674;28;20618;-79
2021/11/05 03:17:26;;;;;;;11.88;10.05;;;;;;;;;;5050374;28;20202;-78
2021/11/05 03:19:53;;;;;;;13.13;10.00;;;;;;;;;;5047860;28;20198;-79
2021/11/05 03:22:21;;;;;;;12.10;10.02;;;;;;;;;;5044423;28;20194;-80
2021/11/05 03:24:48;;;;;;;12.77;11.00;;;;;;;;;;5040013;28;20196;-79
2021/11/05 03:27:16;;;;;;;11.85;9.60;;;;;;;;;;5050771;28;20187;-80
2021/11/05 03:29:43;;;;;;;16.52;11.68;;;;;;;;;;5048797;28;20195;-80
2021/11/05 03:32:12;;;;;;;11.93;9.50;;;;;;;;;;5051693;28;20547;-80
2021/11/05 03:34:39;;;;;;;12.15;9.82;;;;;;;;;;5058931;28;20210;-79
2021/11/05 03:37:07;;;;;;;11.68;10.10;;;;;;;;;;5031825;28;20195;-81
2021/11/05 03:39:34;;;;;;;10.35;9.02;;;;;;;;;;5042873;28;20206;-81
2021/11/05 03:42:02;;;;;;;13.70;10.02;;;;;;;;;;5050357;28;20202;-81
2021/11/05 03:44:29;;;;;;;12.73;9.55;;;;;;;;;;5052202;28;20199;-78
2021/11/05 03:46:56;;;;;;;11.73;9.50;;;;;;;;;;5048233;28;20198;-80
2021/11/05 03:49:25;;;;;;;12.02;9.75;;;;;;;;;;5050236;28;20195;-79
2021/11/05 03:51:52;;;;;;;11.45;8.85;;;;;;;;;;5046408;28;20221;-80
2021/11/05 03:54:19;;;;;;;9.63;7.90;;;;;;;;;;5048652;28;20200;-79
2021/11/05 03:56:46;;;;;;;11.75;8.32;;;;;;;;;;5043363;28;20218;-79
2021/11/05 03:59:13;;;;;;;13.07;8.98;;;;;;;;;;5049948;28;20210;-79
2021/11/05 04:01:41;;;;;;;13.68;10.60;;;;;;;;;;5050077;28;20195;-79
2021/11/05 04:04:08;;;;;;;13.50;9.73;;;;;;;;;;5054183;28;20292;-81
2021/11/05 04:06:36;;;;;;;12.60;11.27;;;;;;;;;;5048778;28;20199;-80
2021/11/05 04:09:04;;;;;;;13.32;10.00;;;;;;;;;;5051091;28;20273;-80
2021/11/05 04:11:31;;;;;;;15.98;11.18;;;;;;;;;;5049653;28;20784;-78
2021/11/05 04:13:58;;;;;;;12.18;9.27;;;;;;;;;;5044931;28;20191;-80
2021/11/05 04:16:25;;;;;;;14.70;10.52;;;;;;;;;;5039727;28;20195;-80
2021/11/05 04:18:52;;;;;;;15.98;11.48;;;;;;;;;;5050754;28;20207;-80
2021/11/05 04:21:19;;;;;;;12.88;9.70;;;;;;;;;;5048551;28;20207;-80
2021/11/05 04:23:47;;;;;;;11.50;9.63;;;;;;;;;;5047163;28;20195;-80
2021/11/05 04:26:15;;;;;;;13.45;10.30;;;;;;;;;;5048962;28;20190;-80
2021/11/05 04:28:42;;;;;;;13.57;9.50;;;;;;;;;;5049651;28;20205;-79
2021/11/05 04:31:09;;;;;;;15.98;12.13;;;;;;;;;;5050125;28;20198;-81
2021/11/05 04:33:37;;;;;;;15.70;10.90;;;;;;;;;;5050215;28;20268;-79
2021/11/05 04:36:05;;;;;;;14.95;10.82;;;;;;;;;;5047997;28;20190;-82
2021/11/05 04:38:32;;;;;;;11.35;8.30;;;;;;;;;;5053633;28;20229;-81
2021/11/05 04:41:00;;;;;;;17.05;11.05;;;;;;;;;;5052341;28;20191;-81
2021/11/05 04:43:28;;;;;;;15.27;10.30;;;;;;;;;;5048265;28;20692;-81
2021/11/05 04:45:56;;;;;;;16.80;12.05;;;;;;;;;;5052554;28;20250;-81
2021/11/05 04:48:23;;;;;;;14.90;10.18;;;;;;;;;;5047941;28;20199;-82
2021/11/05 04:50:50;;;;;;;12.35;9.65;;;;;;;;;;5048450;28;20206;-81
2021/11/05 04:53:17;;;;;;;14.85;10.90;;;;;;;;;;5053451;28;20218;-81
2021/11/05 04:55:44;;;;;;;14.18;10.50;;;;;;;;;;5054359;28;20211;-81
2021/11/05 04:58:12;;;;;;;12.70;9.20;;;;;;;;;;5050798;28;20203;-81
2021/11/05 05:00:39;;;;;;;13.35;10.13;;;;;;;;;;5046892;28;20220;-81
2021/11/05 05:03:07;;;;;;;12.63;9.43;;;;;;;;;;5052973;28;20564;-81
2021/11/05 05:05:35;;;;;;;15.88;10.23;;;;;;;;;;5051193;28;20611;-82
2021/11/05 05:08:02;;;;;;;16.58;11.80;;;;;;;;;;5048347;28;20199;-81
2021/11/05 05:10:30;;;;;;;15.02;10.55;;;;;;;;;;5047796;28;20195;-82
2021/11/05 05:12:57;;;;;;;15.75;11.07;;;;;;;;;;5054249;28;20284;-82
2021/11/05 05:15:25;;;;;;;15.95;12.00;;;;;;;;;;5064753;28;20613;-81
2021/11/05 05:17:52;;;;;;;16.30;10.02;;;;;;;;;;5065704;28;20661;-80
2021/11/05 05:20:20;;;;;;;15.55;11.95;;;;;;;;;;5073687;28;20676;-80
2021/11/05 05:22:47;;;;;;;14.38;9.65;;;;;;;;;;5049681;28;20203;-82
2021/11/05 05:25:15;;;;;;;14.77;10.18;;;;;;;;;;5055366;28;20191;-81
2021/11/05 05:27:43;;;;;;;16.20;11.77;;;;;;;;;;5050542;28;20202;-81
2021/11/05 05:30:12;;;;;;;14.77;11.27;;;;;;;;;;5053145;28;20202;-80
2021/11/05 05:32:40;;;;;;;15.00;10.70;;;;;;;;;;5054196;28;20214;-80
2021/11/05 05:35:08;;;;;;;14.60;10.27;;;;;;;;;;5053915;28;20198;-81
2021/11/05 05:37:35;;;;;;;14.20;10.13;;;;;;;;;;5047201;28;20196;-80
2021/11/05 05:40:02;;;;;;;12.02;9.60;;;;;;;;;;5044175;28;20436;-80
2021/11/05 05:42:29;;;;;;;13.98;9.55;;;;;;;;;;5043388;28;20202;-77
2021/11/05 05:44:56;;;;;;;13.27;9.73;;;;;;;;;;5050108;28;20206;-79
2021/11/05 05:47:23;;;;;;;14.10;9.32;;;;;;;;;;5051930;28;20202;-87
2021/11/05 05:49:52;;;;;;;16.90;9.30;;;;;;;;;;5050359;28;20202;-84
2021/11/05 05:52:19;;;;;;;14.80;10.20;;;;;;;;;;5051701;28;20288;-83
2021/11/05 05:54:46;;;;;;;14.65;10.57;;;;;;;;;;5048469;28;20202;-83
2021/11/05 05:57:13;;;;;;;14.18;9.45;;;;;;;;;;5046947;28;20202;-87
2021/11/05 05:59:40;;;;;;;21.40;10.73;;;;;;;;;;5045865;28;20223;-79
2021/11/05 06:02:08;;;;;;;13.20;9.93;;;;;;;;;;5042908;28;20248;-79
2021/11/05 06:04:36;;;;;;;11.68;7.97;;;;;;;;;;5050230;28;20200;-77
2021/11/05 06:07:04;;;;;;;14.75;9.57;;;;;;;;;;5061425;28;20198;-76
2021/11/05 06:09:31;;;;;;;14.15;9.80;;;;;;;;;;5052402;28;20685;-78
2021/11/05 06:11:58;;;;;;;13.60;9.25;;;;;;;;;;5039417;28;20210;-79
2021/11/05 06:14:25;;;;;;;13.50;9.30;;;;;;;;;;5053216;28;20195;-78
2021/11/05 06:16:53;;;;;;;15.85;10.30;;;;;;;;;;5050341;28;20206;-79
2021/11/05 06:19:20;;;;;;;14.32;9.55;;;;;;;;;;5039057;28;20245;-78
2021/11/05 06:21:47;;;;;;;11.80;8.60;;;;;;;;;;5049670;28;20191;-79
2021/11/05 06:24:15;;;;;;;13.95;9.27;;;;;;;;;;5045668;28;20203;-79
2021/11/05 06:26:42;;;;;;;16.05;11.35;;;;;;;;;;5041239;28;20395;-79
2021/11/05 06:29:09;;;;;;;12.85;9.88;;;;;;;;;;5051145;28;20585;-79
2021/11/05 06:31:37;;;;;;;10.57;9.30;;;;;;;;;;5048146;28;20187;-79
2021/11/05 06:34:04;;;;;;;13.23;9.50;;;;;;;;;;5052479;28;20306;-78
2021/11/05 06:36:32;;;;;;;10.80;7.97;;;;;;;;;;5057661;28;20206;-79
2021/11/05 06:38:59;;;;;;;13.48;9.38;;;;;;;;;;5050954;28;20199;-79
2021/11/05 06:41:27;;;;;;;10.75;8.40;;;;;;;;;;5049692;28;20201;-79
2021/11/05 06:43:55;;;;;;;10.45;7.35;;;;;;;;;;5064288;28;20222;-79
2021/11/05 06:46:22;;;;;;;11.35;9.07;;;;;;;;;;5050675;28;20214;-79
2021/11/05 06:48:49;;;;;;;12.77;10.10;;;;;;;;;;5049581;28;20654;-79
2021/11/05 06:51:16;;;;;;;12.57;9.90;;;;;;;;;;5051120;28;20653;-79
2021/11/05 06:53:43;;;;;;;13.82;9.43;;;;;;;;;;5032106;28;20588;-79
2021/11/05 06:56:11;;;;;;;11.52;8.80;;;;;;;;;;5040828;28;20203;-80
2021/11/05 06:58:40;;;;;;;12.45;8.50;;;;;;;;;;5049901;28;20199;-80
2021/11/05 07:01:08;;;;;;;10.63;8.10;;;;;;;;;;5051423;28;20210;-80
2021/11/05 07:03:35;;;;;;;12.32;9.10;;;;;;;;;;5049029;28;20203;-80
2021/11/05 07:06:02;;;;;;;12.43;8.73;;;;;;;;;;5049883;28;20198;-80
2021/11/05 07:08:30;;;;;;;12.07;8.10;;;;;;;;;;5049961;28;20195;-79
2021/11/05 07:10:57;;;;;;;9.32;8.23;;;;;;;;;;5049435;28;20264;-78
2021/11/05 07:13:25;;;;;;;11.75;8.02;;;;;;;;;;5041263;28;20214;-80
2021/11/05 07:15:54;;;;;;;9.50;7.82;;;;;;;;;;5052039;28;20202;-82
2021/11/05 07:18:21;;;;;;;13.25;8.90;;;;;;;;;;5043322;28;20195;-82
2021/11/05 07:20:48;;;;;;;10.88;7.65;;;;;;;;;;5044751;28;20206;-83
2021/11/05 07:23:16;;;;;;;9.05;7.25;;;;;;;;;;5057311;28;20191;-84
2021/11/05 07:25:43;;;;;;;10.75;7.82;;;;;;;;;;5045253;28;20199;-83
2021/11/05 07:28:10;;;;;;;13.68;7.78;;;;;;;;;;5039829;28;20202;-80
2021/11/05 07:30:38;;;;;;;10.52;7.70;;;;;;;;;;5048118;28;20195;-81
2021/11/05 07:33:07;;;;;;;11.90;7.72;;;;;;;;;;5066697;28;20225;-82
2021/11/05 07:35:34;;;;;;;12.18;8.20;;;;;;;;;;5061578;28;20268;-81
2021/11/05 07:38:02;;;;;;;10.82;8.30;;;;;;;;;;5049340;28;20199;-79
2021/11/05 07:40:29;;;;;;;10.07;8.73;;;;;;;;;;5049941;28;20187;-83
2021/11/05 07:42:56;;;;;;;9.82;7.68;;;;;;;;;;5052367;28;20205;-84
2021/11/05 07:45:25;;;;;;;12.75;7.40;;;;;;;;;;5041296;28;20195;-84
2021/11/05 07:47:53;;;;;;;10.65;7.72;;;;;;;;;;5049641;28;20653;-86
2021/11/05 07:50:23;;;;;;;12.05;9.40;;;;;;;;;;5053314;28;20233;-87
2021/11/05 07:52:50;;;;;;;13.65;10.32;;;;;;;;;;5053208;28;20211;-87
2021/11/05 07:55:17;;;;;;;14.70;8.90;;;;;;;;;;5039262;28;20199;-76
2021/11/05 07:57:44;;;;;;;13.93;9.10;;;;;;;;;;5050264;28;20191;-79
2021/11/05 08:00:13;;;;;;;12.45;9.15;;;;;;;;;;5033312;28;20226;-77
2021/11/05 08:02:40;;;;;;;19.50;10.30;;;;;;;;;;5019894;28;20222;-78
2021/11/05 08:05:08;;;;;;;15.48;9.57;;;;;;;;;;5018204;28;20222;-77
2021/11/05 08:07:37;;;;;;;16.00;9.15;;;;;;;;;;5043523;28;20195;-76
2021/11/05 08:10:04;;;;;;;20.00;9.30;;;;;;;;;;5047264;28;20191;-81
2021/11/05 08:12:31;;;;;;;17.83;9.45;;;;;;;;;;5039846;28;20202;-81
2021/11/05 08:14:58;;;;;;;34.03;18.45;;;;;;;;;;5040367;28;20194;-81
2021/11/05 08:17:25;;;;;;;37.42;21.23;;;;;;;;;;5048302;28;20281;-81
2021/11/05 08:19:52;;;;;;;31.83;20.17;;;;;;;;;;5030568;28;20204;-81
2021/11/05 08:22:20;;;;;;;33.80;19.73;;;;;;;;;;5043651;28;20195;-81
2021/11/05 08:24:51;;;;;;;31.55;16.90;;;;;;;;;;5047612;28;20222;-78
2021/11/05 08:27:18;;;;;;;30.33;18.67;;;;;;;;;;5047812;28;20191;-81
2021/11/05 08:29:46;;;;;;;35.72;18.33;;;;;;;;;;5049971;28;20195;-80
2021/11/05 08:32:13;;;;;;;28.45;17.17;;;;;;;;;;5049473;28;20198;-82
2021/11/05 08:34:40;;;;;;;32.13;17.48;;;;;;;;;;5045844;28;20218;-79
2021/11/05 08:37:07;;;;;;;29.38;17.15;;;;;;;;;;5048202;28;20732;-80
2021/11/05 08:39:35;;;;;;;32.40;18.45;;;;;;;;;;5050503;28;20308;-82
2021/11/05 08:42:03;;;;;;;30.98;16.67;;;;;;;;;;5032556;28;20515;-81
2021/11/05 08:44:32;;;;;;;28.23;16.80;;;;;;;;;;5038084;28;20653;-81
2021/11/05 08:46:59;;;;;;;23.98;17.25;;;;;;;;;;5040334;28;20725;-81
2021/11/05 08:49:27;;;;;;;30.65;15.35;;;;;;;;;;5047471;28;20191;-80
2021/11/05 08:51:54;;;;;;;25.13;17.70;;;;;;;;;;5045453;28;20278;-82
2021/11/05 08:54:21;;;;;;;34.03;17.40;;;;;;;;;;5048210;28;20219;-81
2021/11/05 08:56:48;;;;;;;30.77;16.65;;;;;;;;;;5034671;28;20206;-81
2021/11/05 08:59:18;;;;;;;29.00;17.15;;;;;;;;;;5041808;28;20320;-80
2021/11/05 09:01:45;;;;;;;34.97;17.08;;;;;;;;;;5048946;28;20194;-79
2021/11/05 09:04:13;;;;;;;25.98;15.48;;;;;;;;;;5042697;28;20213;-81
2021/11/05 09:06:40;;;;;;;29.40;15.15;;;;;;;;;;5043255;28;20191;-80
2021/11/05 09:09:07;;;;;;;21.67;13.18;;;;;;;;;;5047905;28;20666;-81
2021/11/05 09:11:34;;;;;;;37.05;17.90;;;;;;;;;;5049161;28;20191;-80
2021/11/05 09:14:01;;;;;;;27.05;15.73;;;;;;;;;;5032746;28;20219;-81
2021/11/05 09:16:30;;;;;;;35.13;17.55;;;;;;;;;;5043941;28;20195;-80
2021/11/05 09:18:58;;;;;;;26.08;15.73;;;;;;;;;;5043283;28;20308;-81
2021/11/05 09:21:25;;;;;;;31.35;17.52;;;;;;;;;;5050621;28;20202;-79
2021/11/05 09:23:52;;;;;;;31.52;16.35;;;;;;;;;;5053090;28;20214;-80
2021/11/05 09:26:21;;;;;;;29.00;16.00;;;;;;;;;;5050453;28;20202;-80
2021/11/05 09:28:48;;;;;;;26.50;15.90;;;;;;;;;;5048013;28;20206;-80
2021/11/05 09:31:15;;;;;;;32.22;17.42;;;;;;;;;;5048637;28;20198;-81
2021/11/05 09:33:44;;;;;;;28.77;18.08;;;;;;;;;;5057932;28;20211;-81
2021/11/05 09:36:11;;;;;;;35.50;17.48;;;;;;;;;;5052776;28;20195;-81
2021/11/05 09:38:38;;;;;;;26.67;16.80;;;;;;;;;;5047127;28;20207;-80
2021/11/05 09:41:05;;;;;;;25.77;15.32;;;;;;;;;;5048637;28;20191;-81
2021/11/05 09:43:32;;;;;;;30.27;16.25;;;;;;;;;;5048137;28;20210;-80
2021/11/05 09:45:59;;;;;;;26.33;15.93;;;;;;;;;;5033753;28;20191;-82
2021/11/05 09:48:27;;;;;;;20.75;14.55;;;;;;;;;;5044560;28;20199;-80
2021/11/05 09:50:57;;;;;;;33.63;16.17;;;;;;;;;;5051202;28;20199;-80
2021/11/05 09:53:24;;;;;;;26.55;15.10;;;;;;;;;;5049366;28;20215;-82
2021/11/05 09:55:51;;;;;;;26.25;14.30;;;;;;;;;;5041720;28;20192;-80
2021/11/05 09:58:18;;;;;;;32.55;19.25;;;;;;;;;;5033782;28;20654;-78
2021/11/05 10:00:45;;;;;;;26.25;15.38;;;;;;;;;;5046589;28;20222;-81
2021/11/05 10:03:13;;;;;;;29.23;16.52;;;;;;;;;;5049915;28;20269;-80
2021/11/05 10:05:41;;;;;;;28.77;16.05;;;;;;;;;;5053428;28;20202;-81
2021/11/05 10:08:09;;;;;;;25.75;15.55;;;;;;;;;;5053786;28;20194;-82
2021/11/05 10:10:38;;;;;;;22.48;15.02;;;;;;;;;;5052297;28;20217;-87
2021/11/05 10:13:06;;;;;;;38.63;22.55;;;;;;;;;;5046862;28;20206;-77
2021/11/05 10:15:40;;;;;;;37.58;20.90;;;;;;;;;;5046484;28;20221;-79
2021/11/05 10:18:12;;;;;;;41.20;23.15;;;;;;;;;;5048288;28;20479;-81
2021/11/05 10:20:39;;;;;;;33.83;19.70;;;;;;;;;;5043135;28;20203;-80
2021/11/05 10:23:06;;;;;;;34.38;20.08;;;;;;;;;;5045740;28;20210;-77
2021/11/05 10:25:37;;;;;;;35.72;19.42;;;;;;;;;;5055229;28;20194;-79
2021/11/05 10:28:06;;;;;;;33.17;19.38;;;;;;;;;;5045496;28;20199;-79
2021/11/05 10:30:34;;;;;;;34.72;18.50;;;;;;;;;;5052379;28;20194;-79
2021/11/05 10:33:02;;;;;;;34.13;17.25;;;;;;;;;;5056178;28;20187;-82
2021/11/05 10:35:30;;;;;;;37.55;20.73;;;;;;;;;;5069059;28;20195;-83
2021/11/05 10:38:01;;;;;;;32.90;17.17;;;;;;;;;;5048395;28;20207;-79
2021/11/05 10:40:31;;;;;;;34.80;17.98;;;;;;;;;;5050545;28;20249;-82
2021/11/05 10:42:59;;;;;;;30.70;17.42;;;;;;;;;;5055054;28;20186;-82
2021/11/05 10:45:27;;;;;;;31.88;18.35;;;;;;;;;;5045312;28;20191;-82
2021/11/05 10:48:09;;;;;;;40.70;19.00;;;;;;;;;;5051211;28;20209;-82
2021/11/05 10:50:39;;;;;;;28.48;17.95;;;;;;;;;;5050813;28;20226;-82
2021/11/05 10:53:08;;;;;;;28.27;17.58;;;;;;;;;;5050970;28;20210;-82
2021/11/05 10:55:45;;;;;;;28.50;18.70;;;;;;;;;;5048909;28;20672;-82
2021/11/05 10:58:18;;;;;;;28.80;17.10;;;;;;;;;;5044374;28;20681;-82
2021/11/05 11:00:46;;;;;;;28.95;16.80;;;;;;;;;;5047591;28;20221;-81
2021/11/05 11:03:14;;;;;;;34.78;17.63;;;;;;;;;;5049910;28;20195;-83
2021/11/05 11:05:43;;;;;;;32.13;17.08;;;;;;;;;;5051181;28;20194;-82
2021/11/05 11:08:11;;;;;;;30.90;16.90;;;;;;;;;;5063481;28;20564;-82
2021/11/05 11:10:39;;;;;;;29.20;16.85;;;;;;;;;;5058478;28;20204;-82
2021/11/05 11:13:26;;;;;;;26.02;15.70;;;;;;;;;;5046945;28;20226;-83
2021/11/05 11:15:55;;;;;;;28.10;15.88;;;;;;;;;;5043904;28;20388;-83
2021/11/05 11:18:22;;;;;;;25.15;15.27;;;;;;;;;;5046809;28;20191;-81
2021/11/05 11:20:49;;;;;;;26.77;15.40;;;;;;;;;;5046647;28;20190;-82
2021/11/05 11:23:16;;;;;;;26.35;16.42;;;;;;;;;;5052316;28;20673;-82
2021/11/05 11:25:43;;;;;;;24.27;14.45;;;;;;;;;;5051386;28;20207;-88
2021/11/05 11:28:10;;;;;;;28.05;15.20;;;;;;;;;;5036388;28;20198;-77
2021/11/05 11:30:37;;;;;;;23.33;15.15;;;;;;;;;;5051921;28;20266;-78
2021/11/05 11:33:06;;;;;;;25.88;15.25;;;;;;;;;;5050197;28;20199;-82
2021/11/05 11:35:34;;;;;;;28.92;17.05;;;;;;;;;;5053358;28;20234;-79
2021/11/05 11:38:01;;;;;;;26.40;16.90;;;;;;;;;;5047000;28;20198;-83
2021/11/05 11:40:28;;;;;;;23.80;15.20;;;;;;;;;;5046964;28;20207;-79
2021/11/05 11:42:56;;;;;;;25.70;15.43;;;;;;;;;;5055970;28;20199;-79
2021/11/05 11:45:23;;;;;;;22.30;15.20;;;;;;;;;;5052077;28;20187;-78
2021/11/05 11:47:53;;;;;;;25.00;15.65;;;;;;;;;;5050538;28;20593;-78
2021/11/05 11:50:23;;;;;;;26.95;15.60;;;;;;;;;;5042786;28;20195;-76
2021/11/05 11:53:04;;;;;;;23.23;14.05;;;;;;;;;;5047139;28;20396;-77
2021/11/05 11:55:31;;;;;;;23.25;14.60;;;;;;;;;;5057582;28;20214;-78
2021/11/05 11:58:12;;;;;;;25.10;14.85;;;;;;;;;;5051807;28;20195;-78
2021/11/05 12:00:40;;;;;;;28.05;15.15;;;;;;;;;;5048230;28;20225;-77
2021/11/05 12:03:09;;;;;;;23.02;14.50;;;;;;;;;;5045002;28;20291;-78
2021/11/05 12:05:39;;;;;;;24.10;15.50;;;;;;;;;;5045943;28;20199;-77
2021/11/05 12:08:17;;;;;;;26.80;14.63;;;;;;;;;;5037645;28;20195;-79
2021/11/05 12:10:45;;;;;;;26.58;15.55;;;;;;;;;;5036432;28;20203;-77
2021/11/05 12:13:36;;;;;;;23.77;14.20;;;;;;;;;;5060250;28;20205;-76
2021/11/05 12:16:21;;;;;;;22.17;13.95;;;;;;;;;;5039980;28;20191;-78
2021/11/05 12:19:06;;;;;;;28.60;15.82;;;;;;;;;;5050510;28;20202;-79
2021/11/05 12:21:36;;;;;;;24.33;14.35;;;;;;;;;;5048252;28;20236;-81
2021/11/05 12:24:24;;;;;;;21.48;15.38;;;;;;;;;;5044830;28;20226;-79
2021/11/05 12:26:52;;;;;;;20.70;14.13;;;;;;;;;;5035783;28;20203;-78
2021/11/05 12:29:34;;;;;;;24.05;15.85;;;;;;;;;;5041233;28;20194;-78
2021/11/05 12:32:02;;;;;;;26.42;15.55;;;;;;;;;;5036522;28;20256;-78
2021/11/05 12:34:35;;;;;;;21.50;15.60;;;;;;;;;;5049888;28;20504;-80
2021/11/05 12:37:05;;;;;;;23.98;15.00;;;;;;;;;;5049190;28;20612;-81
2021/11/05 12:39:33;;;;;;;21.45;15.93;;;;;;;;;;5046418;28;20206;-78
2021/11/05 12:42:01;;;;;;;19.88;14.57;;;;;;;;;;5047042;28;20194;-78
2021/11/05 12:44:30;;;;;;;22.67;15.15;;;;;;;;;;5048206;28;20239;-78
2021/11/05 12:46:57;;;;;;;18.10;13.10;;;;;;;;;;5040869;28;20195;-77
2021/11/05 12:49:24;;;;;;;18.25;13.65;;;;;;;;;;5046993;28;20210;-80
2021/11/05 12:51:52;;;;;;;22.17;13.88;;;;;;;;;;5041719;28;20654;-78
2021/11/05 12:54:22;;;;;;;20.63;13.40;;;;;;;;;;5046396;28;20313;-82
2021/11/05 12:56:52;;;;;;;20.65;13.85;;;;;;;;;;5044747;28;20574;-78
2021/11/05 12:59:20;;;;;;;17.48;13.15;;;;;;;;;;5054329;28;20206;-79
2021/11/05 13:01:57;;;;;;;27.10;14.95;;;;;;;;;;5043286;28;20206;-80
2021/11/05 13:04:25;;;;;;;21.13;14.13;;;;;;;;;;5043835;28;20194;-79
2021/11/05 13:06:55;;;;;;;15.65;12.18;;;;;;;;;;5054520;28;20277;-78
2021/11/05 13:09:27;;;;;;;22.27;13.93;;;;;;;;;;5063439;28;20197;-78
2021/11/05 13:11:55;;;;;;;17.67;13.55;;;;;;;;;;5053892;28;20584;-83
2021/11/05 13:14:34;;;;;;;23.30;14.63;;;;;;;;;;5053691;28;20218;-81
2021/11/05 13:17:01;;;;;;;22.25;15.45;;;;;;;;;;5053438;28;20191;-76
2021/11/05 13:19:28;;;;;;;19.73;13.85;;;;;;;;;;5035225;28;20214;-80
2021/11/05 13:22:02;;;;;;;16.60;12.18;;;;;;;;;;5051535;28;20202;-83
2021/11/05 13:24:30;;;;;;;21.10;13.50;;;;;;;;;;5059155;28;20199;-88
2021/11/05 13:27:04;;;;;;;21.38;14.27;;;;;;;;;;5054170;28;20202;-75
2021/11/05 13:29:31;;;;;;;20.05;13.30;;;;;;;;;;5049249;28;20198;-81
2021/11/05 13:32:12;;;;;;;19.15;12.75;;;;;;;;;;5050383;28;20191;-79
2021/11/05 13:34:40;;;;;;;17.23;12.43;;;;;;;;;;5045864;28;20219;-79
2021/11/05 13:37:07;;;;;;;16.58;12.13;;;;;;;;;;5065021;28;20576;-79
2021/11/05 13:39:35;;;;;;;24.10;14.48;;;;;;;;;;5050322;28;20205;-78
2021/11/05 13:42:10;;;;;;;16.90;11.23;;;;;;;;;;5046468;28;20199;-78
2021/11/05 13:44:38;;;;;;;19.65;12.00;;;;;;;;;;5052810;28;20552;-79
2021/11/05 13:47:13;;;;;;;19.77;13.10;;;;;;;;;;5052144;28;20196;-79
2021/11/05 13:49:40;;;;;;;14.25;11.50;;;;;;;;;;5050519;28;20213;-79
2021/11/05 13:52:08;;;;;;;19.15;12.90;;;;;;;;;;5045612;28;20205;-77
2021/11/05 13:54:42;;;;;;;16.38;11.63;;;;;;;;;;5049361;28;20695;-79
2021/11/05 13:57:09;;;;;;;16.83;11.75;;;;;;;;;;5052176;28;20565;-79
2021/11/05 13:59:36;;;;;;;17.50;12.95;;;;;;;;;;5050673;28;20231;-79
2021/11/05 14:02:04;;;;;;;22.63;14.05;;;;;;;;;;5048396;28;20245;-78
2021/11/05 14:04:31;;;;;;;24.00;14.05;;;;;;;;;;5043441;28;20210;-79
2021/11/05 14:06:59;;;;;;;17.75;12.73;;;;;;;;;;5048695;28;20539;-78
2021/11/05 14:09:26;;;;;;;18.85;12.48;;;;;;;;;;5047396;28;20206;-80
2021/11/05 14:11:56;;;;;;;17.73;12.25;;;;;;;;;;5049760;28;20199;-78
2021/11/05 14:14:24;;;;;;;21.25;11.93;;;;;;;;;;5047573;28;20568;-78
2021/11/05 14:16:52;;;;;;;15.35;11.73;;;;;;;;;;5050096;28;20542;-79
2021/11/05 14:19:20;;;;;;;17.60;12.20;;;;;;;;;;5046567;28;20187;-79
2021/11/05 14:21:57;;;;;;;19.20;11.88;;;;;;;;;;5050419;28;20559;-78
2021/11/05 14:24:24;;;;;;;16.40;11.75;;;;;;;;;;5046861;28;20205;-78
2021/11/05 14:27:05;;;;;;;17.55;12.98;;;;;;;;;;5034331;28;20191;-78